Time;durP1;ratioP1;P1;durP2;ratioP2;P2;SDS_P1;SDS_P2;PMS_P1;PMS_P2;Temp;Humidity;BMP_temperature;BMP_pressure;BME280_temperature;BME280_humidity;BME280_pressure;Samples;Min_cycle;Max_cycle;Signal;HPM_P1;HPM_P2
2021/03/11 00:00:05;;;;;;;16.73;8.25;;;6.00;99.90;;;;;;473502;248;27632;-72
2021/03/11 00:02:06;;;;;;;14.57;9.10;;;6.00;99.90;;;;;;473524;248;28006;-73
2021/03/11 00:04:07;;;;;;;14.52;9.73;;;6.00;99.90;;;;;;473508;243;27588;-72
2021/03/11 00:06:09;;;;;;;19.05;9.38;;;6.00;99.90;;;;;;473519;248;27626;-74
2021/03/11 00:08:10;;;;;;;15.60;10.20;;;6.10;99.90;;;;;;473521;248;27492;-73
2021/03/11 00:10:11;;;;;;;15.20;9.80;;;6.10;99.90;;;;;;473483;248;27596;-73
2021/03/11 00:12:12;;;;;;;13.73;9.05;;;6.10;99.90;;;;;;473501;248;27949;-73
2021/03/11 00:14:14;;;;;;;15.15;9.43;;;6.10;99.90;;;;;;473519;248;27967;-72
2021/03/11 00:16:15;;;;;;;12.65;8.48;;;6.10;99.90;;;;;;473530;248;27606;-74
2021/03/11 00:18:16;;;;;;;16.35;10.32;;;6.10;99.90;;;;;;473510;248;27438;-73
2021/03/11 00:20:17;;;;;;;14.70;9.40;;;6.20;99.90;;;;;;473487;248;27597;-72
2021/03/11 00:22:19;;;;;;;16.00;10.50;;;6.20;99.90;;;;;;473460;248;28057;-72
2021/03/11 00:24:20;;;;;;;13.80;9.68;;;6.20;99.90;;;;;;473476;248;27959;-72
2021/03/11 00:26:21;;;;;;;16.05;9.90;;;6.20;99.90;;;;;;473505;248;27468;-72
2021/03/11 00:28:22;;;;;;;16.58;9.00;;;6.20;99.90;;;;;;473465;248;27501;-73
2021/03/11 00:30:24;;;;;;;15.05;8.85;;;6.20;99.90;;;;;;473460;248;27519;-73
2021/03/11 00:32:25;;;;;;;15.93;9.75;;;6.20;99.90;;;;;;473471;248;27413;-73
2021/03/11 00:34:26;;;;;;;15.70;9.57;;;6.20;99.90;;;;;;473528;248;27995;-74
2021/03/11 00:36:27;;;;;;;19.48;10.90;;;6.30;99.90;;;;;;473560;248;27405;-73
2021/03/11 00:38:29;;;;;;;13.93;8.65;;;6.30;99.90;;;;;;473542;248;27537;-73
2021/03/11 00:40:32;;;;;;;14.45;8.43;;;6.30;99.90;;;;;;473527;248;27508;-73
2021/03/11 00:42:31;;;;;;;15.30;9.50;;;6.30;99.90;;;;;;473578;248;27412;-72
2021/03/11 00:44:33;;;;;;;14.45;9.80;;;6.40;99.90;;;;;;473512;248;27969;-72
2021/03/11 00:46:34;;;;;;;13.38;8.40;;;6.40;99.90;;;;;;473558;248;27934;-72
2021/03/11 00:48:35;;;;;;;14.68;9.50;;;6.40;99.90;;;;;;473510;248;27516;-72
2021/03/11 00:50:36;;;;;;;13.48;9.45;;;6.40;99.90;;;;;;473514;248;27421;-74
2021/03/11 00:52:38;;;;;;;14.18;9.20;;;6.40;99.90;;;;;;473546;248;27475;-72
2021/03/11 00:54:39;;;;;;;15.73;8.77;;;6.40;99.90;;;;;;473541;248;27945;-71
2021/03/11 00:56:40;;;;;;;15.25;9.73;;;6.50;99.90;;;;;;473556;248;27966;-72
2021/03/11 00:58:41;;;;;;;16.02;9.90;;;6.60;99.90;;;;;;473568;248;27496;-71
2021/03/11 01:00:43;;;;;;;14.75;9.50;;;6.60;99.90;;;;;;473562;248;27424;-74
2021/03/11 01:02:44;;;;;;;13.95;9.30;;;6.70;99.90;;;;;;473557;248;27595;-72
2021/03/11 01:04:45;;;;;;;12.98;8.65;;;6.70;99.90;;;;;;473572;248;27428;-73
2021/03/11 01:06:46;;;;;;;11.55;8.50;;;6.70;99.90;;;;;;473557;248;28224;-72
2021/03/11 01:08:48;;;;;;;13.90;9.60;;;6.70;99.90;;;;;;473554;248;27480;-72
2021/03/11 01:10:49;;;;;;;13.48;9.10;;;6.80;99.90;;;;;;473543;248;28653;-73
2021/03/11 01:12:50;;;;;;;15.18;9.25;;;6.80;99.90;;;;;;473550;248;27504;-72
2021/03/11 01:14:51;;;;;;;13.30;9.30;;;6.80;99.90;;;;;;473551;248;27416;-72
2021/03/11 01:16:53;;;;;;;13.87;8.77;;;6.80;99.90;;;;;;473525;248;28108;-73
2021/03/11 01:18:54;;;;;;;12.90;8.77;;;6.80;99.90;;;;;;473512;248;27765;-72
2021/03/11 01:20:55;;;;;;;14.80;9.40;;;6.80;99.90;;;;;;473531;248;28483;-74
2021/03/11 01:22:56;;;;;;;11.50;8.50;;;6.90;99.90;;;;;;473551;248;28207;-72
2021/03/11 01:24:58;;;;;;;13.67;8.70;;;6.90;99.90;;;;;;473534;248;28223;-72
2021/03/11 01:26:59;;;;;;;15.07;8.80;;;7.00;99.90;;;;;;473523;248;27759;-73
2021/03/11 01:29:00;;;;;;;15.30;8.83;;;7.00;99.90;;;;;;473537;248;27997;-72
2021/03/11 01:31:01;;;;;;;17.67;9.93;;;7.10;99.90;;;;;;473512;248;27890;-74
2021/03/11 01:33:03;;;;;;;17.73;9.30;;;7.10;99.90;;;;;;473526;248;28738;-72
2021/03/11 01:35:04;;;;;;;14.50;8.40;;;7.10;99.90;;;;;;473515;248;27884;-72
2021/03/11 01:37:05;;;;;;;13.93;8.53;;;7.10;99.90;;;;;;473541;248;28775;-73
2021/03/11 01:39:07;;;;;;;14.10;8.67;;;7.10;99.90;;;;;;473537;248;27608;-72
2021/03/11 01:41:08;;;;;;;14.87;9.63;;;7.10;99.90;;;;;;473529;248;27645;-74
2021/03/11 01:43:09;;;;;;;14.07;9.23;;;7.20;99.90;;;;;;473523;248;28199;-74
2021/03/11 01:45:10;;;;;;;19.40;9.43;;;7.10;99.90;;;;;;473509;248;28590;-73
2021/03/11 01:47:11;;;;;;;14.53;8.37;;;7.10;99.90;;;;;;473530;248;28350;-72
2021/03/11 01:49:13;;;;;;;15.57;9.10;;;7.20;99.90;;;;;;473543;248;27766;-72
2021/03/11 01:51:14;;;;;;;15.40;9.90;;;7.10;99.90;;;;;;473509;248;27872;-72
2021/03/11 01:53:15;;;;;;;14.03;9.00;;;7.20;99.90;;;;;;473517;248;27884;-73
2021/03/11 01:55:16;;;;;;;15.63;9.33;;;7.20;99.90;;;;;;473537;248;27903;-73
2021/03/11 01:57:18;;;;;;;13.80;8.80;;;7.20;99.90;;;;;;473505;248;28106;-73
2021/03/11 01:59:19;;;;;;;12.47;8.60;;;7.30;99.90;;;;;;473583;248;27545;-71
2021/03/11 02:01:20;;;;;;;13.43;9.00;;;7.30;99.90;;;;;;473515;248;27872;-72
2021/03/11 02:03:21;;;;;;;14.33;8.53;;;7.30;99.90;;;;;;473520;248;27409;-73
2021/03/11 02:05:23;;;;;;;12.00;7.90;;;7.30;99.90;;;;;;473516;248;27530;-72
2021/03/11 02:07:24;;;;;;;16.23;8.73;;;7.30;99.90;;;;;;473515;248;28323;-72
2021/03/11 02:09:25;;;;;;;17.13;9.40;;;7.30;99.90;;;;;;473524;248;28246;-73
2021/03/11 02:11:26;;;;;;;11.47;8.17;;;7.30;99.90;;;;;;473507;248;28103;-72
2021/03/11 02:13:28;;;;;;;13.67;8.83;;;7.30;99.90;;;;;;473530;243;28759;-72
2021/03/11 02:15:29;;;;;;;12.37;8.37;;;7.20;99.90;;;;;;473534;248;27755;-73
2021/03/11 02:17:30;;;;;;;13.90;9.03;;;7.30;99.90;;;;;;473514;248;28024;-72
2021/03/11 02:19:31;;;;;;;14.03;8.40;;;7.30;99.90;;;;;;473535;248;27986;-75
2021/03/11 02:21:33;;;;;;;13.60;8.43;;;7.30;99.90;;;;;;473564;248;27732;-72
2021/03/11 02:23:34;;;;;;;14.47;8.77;;;7.30;99.90;;;;;;473544;248;27995;-72
2021/03/11 02:25:35;;;;;;;10.03;7.80;;;7.30;99.90;;;;;;473546;248;27401;-72
2021/03/11 02:27:36;;;;;;;11.50;7.87;;;7.30;99.90;;;;;;473541;248;27764;-72
2021/03/11 02:29:38;;;;;;;11.50;7.50;;;7.30;99.90;;;;;;473510;249;28000;-73
2021/03/11 02:31:39;;;;;;;12.98;8.30;;;7.40;99.90;;;;;;473519;248;29022;-72
2021/03/11 02:33:40;;;;;;;15.23;8.90;;;7.30;99.90;;;;;;473531;248;27965;-72
2021/03/11 02:35:42;;;;;;;11.10;8.40;;;7.40;99.90;;;;;;473510;248;27882;-73
2021/03/11 02:37:43;;;;;;;12.07;8.00;;;7.40;99.90;;;;;;473523;248;27756;-72
2021/03/11 02:39:44;;;;;;;13.77;8.30;;;7.40;99.90;;;;;;473517;248;28092;-74
2021/03/11 02:41:45;;;;;;;9.47;7.40;;;7.40;99.90;;;;;;473536;247;27500;-71
2021/03/11 02:43:47;;;;;;;10.83;7.70;;;7.40;99.90;;;;;;473547;248;28102;-72
2021/03/11 02:45:48;;;;;;;11.43;8.13;;;7.30;99.90;;;;;;473526;248;27996;-72
2021/03/11 02:47:49;;;;;;;10.17;7.83;;;7.30;99.90;;;;;;473511;248;27972;-72
2021/03/11 02:49:50;;;;;;;10.13;7.50;;;7.30;99.90;;;;;;473523;248;28692;-73
2021/03/11 02:51:52;;;;;;;11.70;8.27;;;7.20;99.90;;;;;;473556;248;28510;-71
2021/03/11 02:53:53;;;;;;;11.20;7.80;;;7.20;99.90;;;;;;473527;248;28372;-72
2021/03/11 02:55:54;;;;;;;13.70;8.23;;;7.10;99.90;;;;;;473496;248;28102;-72
2021/03/11 02:57:55;;;;;;;13.60;8.50;;;7.00;99.90;;;;;;473510;248;27850;-72
2021/03/11 02:59:57;;;;;;;16.07;9.23;;;6.90;99.90;;;;;;473561;248;28146;-72
2021/03/11 03:01:58;;;;;;;13.20;8.57;;;6.80;99.90;;;;;;473522;248;27899;-74
2021/03/11 03:03:59;;;;;;;16.47;9.70;;;6.80;99.90;;;;;;473576;248;28099;-73
2021/03/11 03:06:00;;;;;;;13.73;9.13;;;6.80;99.90;;;;;;473520;248;28004;-73
2021/03/11 03:08:02;;;;;;;13.35;9.00;;;6.70;99.90;;;;;;473509;248;28437;-72
2021/03/11 03:10:03;;;;;;;13.27;9.10;;;6.70;99.90;;;;;;473518;248;27409;-72
2021/03/11 03:12:04;;;;;;;12.33;8.20;;;6.70;99.90;;;;;;473531;248;28295;-73
2021/03/11 03:14:05;;;;;;;13.63;9.00;;;6.80;99.90;;;;;;473508;248;28541;-72
2021/03/11 03:16:07;;;;;;;12.37;7.87;;;6.80;99.90;;;;;;473515;248;28503;-71
2021/03/11 03:18:08;;;;;;;12.73;8.83;;;6.80;99.90;;;;;;473536;248;27875;-72
2021/03/11 03:20:09;;;;;;;16.20;9.77;;;6.80;99.90;;;;;;473523;248;27536;-72
2021/03/11 03:22:10;;;;;;;15.27;9.23;;;6.80;99.90;;;;;;473530;248;28079;-73
2021/03/11 03:24:12;;;;;;;15.77;8.93;;;6.80;99.90;;;;;;473526;248;27645;-73
2021/03/11 03:26:13;;;;;;;18.75;9.48;;;6.80;99.90;;;;;;473498;248;27654;-71
2021/03/11 03:28:14;;;;;;;15.33;8.53;;;6.80;99.90;;;;;;473534;248;27409;-73
2021/03/11 03:30:15;;;;;;;16.00;8.20;;;6.80;99.90;;;;;;473515;248;27396;-71
2021/03/11 03:32:17;;;;;;;16.67;8.53;;;6.80;99.90;;;;;;473522;248;28436;-72
2021/03/11 03:34:18;;;;;;;13.40;8.40;;;6.90;99.90;;;;;;473511;248;28466;-73
2021/03/11 03:36:19;;;;;;;15.50;9.50;;;6.90;99.90;;;;;;473559;248;28186;-72
2021/03/11 03:38:20;;;;;;;15.93;9.13;;;6.90;99.90;;;;;;473530;248;28423;-73
2021/03/11 03:40:22;;;;;;;15.73;9.43;;;6.90;99.90;;;;;;473529;248;27844;-72
2021/03/11 03:42:23;;;;;;;11.80;7.97;;;6.90;99.90;;;;;;473585;248;27988;-73
2021/03/11 03:44:24;;;;;;;13.03;8.80;;;6.90;99.90;;;;;;473533;248;27728;-71
2021/03/11 03:46:25;;;;;;;16.13;9.23;;;6.90;99.90;;;;;;473522;248;27747;-72
2021/03/11 03:48:27;;;;;;;13.57;8.03;;;6.90;99.90;;;;;;473511;248;27995;-72
2021/03/11 03:50:28;;;;;;;15.53;9.13;;;6.90;99.90;;;;;;473501;248;27853;-72
2021/03/11 03:52:29;;;;;;;13.57;8.10;;;6.90;99.90;;;;;;473502;248;27996;-72
2021/03/11 03:54:31;;;;;;;12.23;8.33;;;7.00;99.90;;;;;;473510;248;28131;-74
2021/03/11 03:56:32;;;;;;;13.73;9.30;;;7.00;99.90;;;;;;473500;248;29318;-72
2021/03/11 03:58:33;;;;;;;12.70;8.03;;;7.00;99.90;;;;;;473497;248;27985;-73
2021/03/11 04:00:34;;;;;;;14.53;8.20;;;7.00;99.90;;;;;;473526;248;28542;-72
2021/03/11 04:02:35;;;;;;;14.03;8.40;;;7.00;99.90;;;;;;473511;248;28771;-73
2021/03/11 04:04:37;;;;;;;12.83;8.90;;;7.10;99.90;;;;;;473527;248;27624;-73
2021/03/11 04:06:38;;;;;;;13.97;8.30;;;7.10;99.90;;;;;;473512;248;28779;-72
2021/03/11 04:08:39;;;;;;;12.97;8.50;;;7.10;99.90;;;;;;473501;248;28357;-72
2021/03/11 04:10:40;;;;;;;14.70;9.03;;;7.00;99.90;;;;;;473547;248;29306;-74
2021/03/11 04:12:42;;;;;;;14.20;8.83;;;7.00;99.90;;;;;;473526;248;27526;-72
2021/03/11 04:14:43;;;;;;;13.93;9.00;;;7.00;99.90;;;;;;473501;248;27986;-73
2021/03/11 04:16:44;;;;;;;16.00;9.50;;;6.90;99.90;;;;;;473495;248;28460;-72
2021/03/11 04:18:46;;;;;;;16.50;8.37;;;6.90;99.90;;;;;;473505;248;28428;-71
2021/03/11 04:20:47;;;;;;;15.70;8.80;;;6.90;99.90;;;;;;473504;248;28716;-73
2021/03/11 04:22:48;;;;;;;13.30;8.90;;;6.90;99.90;;;;;;473483;248;27868;-73
2021/03/11 04:24:49;;;;;;;13.53;9.33;;;6.80;99.90;;;;;;473493;248;28637;-73
2021/03/11 04:26:50;;;;;;;18.87;9.15;;;6.80;99.90;;;;;;473531;248;28095;-72
2021/03/11 04:28:52;;;;;;;16.50;9.30;;;6.70;99.90;;;;;;473510;248;27406;-72
2021/03/11 04:30:53;;;;;;;20.00;10.17;;;6.60;99.90;;;;;;473487;248;28090;-73
2021/03/11 04:32:54;;;;;;;16.67;9.43;;;6.60;99.90;;;;;;473522;248;28350;-72
2021/03/11 04:34:55;;;;;;;18.43;10.37;;;6.50;99.90;;;;;;473525;248;27634;-71
2021/03/11 04:36:57;;;;;;;15.70;10.17;;;6.50;99.90;;;;;;473517;248;28535;-73
2021/03/11 04:38:58;;;;;;;22.48;10.70;;;6.40;99.90;;;;;;473513;248;29400;-71
2021/03/11 04:40:59;;;;;;;15.17;10.30;;;6.40;99.90;;;;;;473516;248;27433;-72
2021/03/11 04:43:00;;;;;;;17.20;11.52;;;6.30;99.90;;;;;;473518;248;27894;-73
2021/03/11 04:45:02;;;;;;;17.85;10.20;;;6.30;99.90;;;;;;473507;248;27600;-72
2021/03/11 04:47:03;;;;;;;13.80;9.17;;;6.30;99.90;;;;;;473523;248;27611;-73
2021/03/11 04:49:04;;;;;;;18.63;11.07;;;6.20;99.90;;;;;;473507;248;28541;-72
2021/03/11 04:51:06;;;;;;;16.15;10.50;;;6.20;99.90;;;;;;473490;248;28498;-72
2021/03/11 04:53:07;;;;;;;18.33;10.67;;;6.20;99.90;;;;;;473511;248;27425;-73
2021/03/11 04:55:08;;;;;;;17.10;10.52;;;6.20;99.90;;;;;;473523;248;28755;-73
2021/03/11 04:57:09;;;;;;;20.80;10.45;;;6.20;99.90;;;;;;473529;248;27601;-72
2021/03/11 04:59:11;;;;;;;15.25;10.35;;;6.20;99.90;;;;;;473501;248;27500;-72
2021/03/11 05:01:12;;;;;;;16.52;10.60;;;6.20;99.90;;;;;;473512;248;28030;-71
2021/03/11 05:03:13;;;;;;;18.20;10.47;;;6.20;99.90;;;;;;473502;248;27389;-71
2021/03/11 05:05:14;;;;;;;15.67;10.00;;;6.20;99.90;;;;;;473490;248;28878;-72
2021/03/11 05:07:16;;;;;;;21.20;11.27;;;6.20;99.90;;;;;;473518;248;28777;-74
2021/03/11 05:09:17;;;;;;;14.95;9.43;;;6.20;99.90;;;;;;473505;248;29006;-72
2021/03/11 05:11:18;;;;;;;16.95;10.07;;;6.20;99.90;;;;;;473492;248;27416;-73
2021/03/11 05:13:19;;;;;;;17.62;10.77;;;6.20;99.90;;;;;;473507;248;28006;-74
2021/03/11 05:15:21;;;;;;;16.60;10.23;;;6.20;99.90;;;;;;473516;248;27412;-71
2021/03/11 05:17:22;;;;;;;15.98;9.32;;;6.20;99.90;;;;;;473506;248;27425;-74
2021/03/11 05:19:23;;;;;;;18.15;10.63;;;6.20;99.90;;;;;;473494;248;27533;-74
2021/03/11 05:21:24;;;;;;;15.63;9.50;;;6.30;99.90;;;;;;473487;248;27949;-72
2021/03/11 05:23:26;;;;;;;15.43;9.18;;;6.30;99.90;;;;;;473504;248;27959;-73
2021/03/11 05:25:27;;;;;;;16.05;9.65;;;6.30;99.90;;;;;;473524;248;27420;-72
2021/03/11 05:27:28;;;;;;;13.10;8.52;;;6.40;99.90;;;;;;473521;248;27624;-72
2021/03/11 05:29:29;;;;;;;14.60;9.00;;;6.40;99.90;;;;;;473507;248;27421;-73
2021/03/11 05:31:31;;;;;;;12.63;8.10;;;6.40;99.90;;;;;;473502;248;27409;-73
2021/03/11 05:33:32;;;;;;;14.00;8.70;;;6.40;99.90;;;;;;473501;248;29028;-72
2021/03/11 05:35:33;;;;;;;15.48;8.85;;;6.40;99.90;;;;;;473538;248;28431;-72
2021/03/11 05:37:34;;;;;;;10.20;8.13;;;6.40;99.90;;;;;;473528;248;27413;-73
2021/03/11 05:39:38;;;;;;;13.27;8.53;;;6.40;99.90;;;;;;473523;248;28314;-72
2021/03/11 05:41:37;;;;;;;12.65;8.52;;;6.40;99.90;;;;;;473532;248;28889;-72
2021/03/11 05:43:38;;;;;;;11.85;8.93;;;6.40;99.90;;;;;;473524;248;27409;-72
2021/03/11 05:45:40;;;;;;;11.50;8.27;;;6.40;99.90;;;;;;473543;248;27472;-73
2021/03/11 05:47:41;;;;;;;12.20;8.03;;;6.40;99.90;;;;;;473522;248;28104;-72
2021/03/11 05:49:42;;;;;;;13.80;8.47;;;6.40;99.90;;;;;;473537;248;28448;-73
2021/03/11 05:51:43;;;;;;;12.82;7.90;;;6.40;99.90;;;;;;473498;248;29317;-72
2021/03/11 05:53:45;;;;;;;12.35;8.65;;;6.30;99.90;;;;;;473528;248;27489;-72
2021/03/11 05:55:46;;;;;;;17.37;8.88;;;6.30;99.90;;;;;;473540;248;27517;-72
2021/03/11 05:57:47;;;;;;;12.65;7.72;;;6.40;99.90;;;;;;473529;248;27516;-72
2021/03/11 05:59:48;;;;;;;11.67;7.77;;;6.40;99.90;;;;;;473538;248;27409;-72
2021/03/11 06:01:50;;;;;;;10.48;7.95;;;6.40;99.90;;;;;;473568;248;28353;-72
2021/03/11 06:03:51;;;;;;;12.95;8.60;;;6.40;99.90;;;;;;473548;248;27990;-70
2021/03/11 06:05:52;;;;;;;10.70;8.00;;;6.40;99.90;;;;;;473593;248;27434;-72
2021/03/11 06:07:53;;;;;;;15.35;8.65;;;6.40;99.90;;;;;;473597;248;27996;-72
2021/03/11 06:09:55;;;;;;;9.80;7.23;;;6.40;99.90;;;;;;473571;248;27401;-72
2021/03/11 06:11:56;;;;;;;10.97;8.07;;;6.40;99.90;;;;;;473551;248;27796;-73
2021/03/11 06:13:57;;;;;;;10.50;7.90;;;6.40;99.90;;;;;;473589;248;27871;-72
2021/03/11 06:15:58;;;;;;;15.70;8.52;;;6.40;99.90;;;;;;473538;248;28871;-72
2021/03/11 06:18:00;;;;;;;11.85;7.60;;;6.40;99.90;;;;;;473574;248;27964;-72
2021/03/11 06:20:01;;;;;;;14.82;8.50;;;6.40;99.90;;;;;;473499;248;27865;-73
2021/03/11 06:22:02;;;;;;;11.20;7.75;;;6.50;99.90;;;;;;473562;248;27413;-72
2021/03/11 06:24:03;;;;;;;12.20;7.32;;;6.50;99.90;;;;;;473527;248;27592;-72
2021/03/11 06:26:05;;;;;;;12.27;7.90;;;6.50;99.90;;;;;;473518;248;27425;-72
2021/03/11 06:28:06;;;;;;;9.03;7.03;;;6.50;99.90;;;;;;473534;248;27775;-73
2021/03/11 06:30:07;;;;;;;13.30;8.53;;;6.50;99.90;;;;;;473515;248;27810;-72
2021/03/11 06:32:08;;;;;;;12.90;8.70;;;6.50;99.90;;;;;;473531;248;28426;-73
2021/03/11 06:34:10;;;;;;;13.23;8.03;;;6.50;99.90;;;;;;473545;248;28102;-72
2021/03/11 06:36:11;;;;;;;14.17;8.50;;;6.50;99.90;;;;;;473511;248;29318;-73
2021/03/11 06:38:12;;;;;;;15.77;8.07;;;6.50;99.90;;;;;;473516;248;27737;-73
2021/03/11 06:40:13;;;;;;;15.70;8.90;;;6.50;99.90;;;;;;473536;248;27421;-72
2021/03/11 06:42:15;;;;;;;14.02;8.43;;;6.50;99.90;;;;;;473539;248;28198;-72
2021/03/11 06:44:16;;;;;;;13.62;8.10;;;6.50;99.90;;;;;;473506;248;27425;-73
2021/03/11 06:46:17;;;;;;;15.50;8.63;;;6.50;99.90;;;;;;473501;248;27425;-73
2021/03/11 06:48:18;;;;;;;17.20;9.90;;;6.50;99.90;;;;;;473511;248;28630;-72
2021/03/11 06:50:20;;;;;;;14.10;9.07;;;6.50;99.90;;;;;;473516;243;27986;-73
2021/03/11 06:52:21;;;;;;;16.48;9.82;;;6.50;99.90;;;;;;473501;248;27473;-72
2021/03/11 06:54:22;;;;;;;13.80;9.20;;;6.50;99.90;;;;;;473524;248;27432;-73
2021/03/11 06:56:24;;;;;;;16.48;10.07;;;6.50;99.90;;;;;;473503;248;27505;-73
2021/03/11 06:58:25;;;;;;;14.10;9.13;;;6.50;99.90;;;;;;473522;248;27594;-72
2021/03/11 07:00:26;;;;;;;15.63;9.40;;;6.50;99.90;;;;;;473523;248;28013;-72
2021/03/11 07:02:27;;;;;;;19.03;9.73;;;6.60;99.90;;;;;;473526;248;29200;-72
2021/03/11 07:04:29;;;;;;;14.40;8.90;;;6.60;99.90;;;;;;473498;248;28586;-73
2021/03/11 07:06:30;;;;;;;18.48;9.90;;;6.60;99.90;;;;;;473520;248;27515;-73
2021/03/11 07:08:31;;;;;;;17.58;10.30;;;6.60;99.90;;;;;;473517;248;27637;-72
2021/03/11 07:10:32;;;;;;;13.85;8.50;;;6.70;99.90;;;;;;473536;248;27505;-74
2021/03/11 07:12:34;;;;;;;12.13;8.50;;;6.70;99.90;;;;;;473519;248;27851;-72
2021/03/11 07:14:35;;;;;;;16.52;9.45;;;6.70;99.90;;;;;;473506;248;28507;-72
2021/03/11 07:16:36;;;;;;;14.30;8.93;;;6.70;99.90;;;;;;473513;248;27604;-73
2021/03/11 07:18:37;;;;;;;13.65;8.80;;;6.70;99.90;;;;;;473521;248;27972;-72
2021/03/11 07:20:39;;;;;;;12.70;7.97;;;6.70;99.90;;;;;;473505;248;27501;-72
2021/03/11 07:22:40;;;;;;;14.03;9.20;;;6.70;99.90;;;;;;473546;248;28004;-72
2021/03/11 07:24:41;;;;;;;14.83;8.90;;;6.80;99.90;;;;;;473578;248;27832;-72
2021/03/11 07:26:42;;;;;;;12.47;8.63;;;6.80;99.90;;;;;;473553;248;28858;-72
2021/03/11 07:28:44;;;;;;;16.23;8.83;;;6.80;99.90;;;;;;473564;248;29222;-72
2021/03/11 07:30:45;;;;;;;16.37;9.30;;;6.90;99.90;;;;;;473571;248;28086;-72
2021/03/11 07:32:46;;;;;;;13.95;8.85;;;6.90;99.90;;;;;;473559;248;29305;-72
2021/03/11 07:34:47;;;;;;;13.18;8.80;;;6.90;99.90;;;;;;473526;248;27428;-72
2021/03/11 07:36:49;;;;;;;12.90;8.87;;;6.90;99.90;;;;;;473516;248;27512;-73
2021/03/11 07:38:50;;;;;;;13.62;8.65;;;7.00;99.90;;;;;;473513;248;28215;-72
2021/03/11 07:40:51;;;;;;;17.40;9.97;;;7.00;99.90;;;;;;473515;248;27503;-72
2021/03/11 07:42:53;;;;;;;13.35;9.15;;;7.00;99.90;;;;;;473497;248;27771;-72
2021/03/11 07:44:54;;;;;;;17.52;9.45;;;6.90;99.90;;;;;;473484;248;27954;-72
2021/03/11 07:46:55;;;;;;;14.40;8.77;;;7.00;99.90;;;;;;473527;248;27412;-73
2021/03/11 07:48:56;;;;;;;16.10;9.40;;;7.00;99.90;;;;;;473529;248;27882;-73
2021/03/11 07:50:57;;;;;;;14.35;9.98;;;7.00;99.90;;;;;;473510;248;28411;-71
2021/03/11 07:52:59;;;;;;;13.68;8.98;;;7.00;99.90;;;;;;473491;248;27504;-71
2021/03/11 07:55:00;;;;;;;15.73;9.63;;;7.00;99.90;;;;;;473514;248;27417;-70
2021/03/11 07:57:01;;;;;;;15.90;10.13;;;7.10;99.90;;;;;;473526;248;28762;-70
2021/03/11 07:59:03;;;;;;;19.00;10.60;;;7.10;99.90;;;;;;473512;248;28533;-71
2021/03/11 08:01:04;;;;;;;17.10;9.97;;;7.10;99.90;;;;;;473498;248;28427;-73
2021/03/11 08:03:05;;;;;;;19.07;9.97;;;7.20;99.90;;;;;;473520;248;27897;-73
2021/03/11 08:05:06;;;;;;;15.40;9.90;;;7.20;99.90;;;;;;473530;248;27722;-72
2021/03/11 08:07:08;;;;;;;17.27;9.70;;;7.20;99.90;;;;;;473509;248;27783;-74
2021/03/11 08:09:09;;;;;;;15.60;9.27;;;7.20;99.90;;;;;;473523;248;27893;-72
2021/03/11 08:11:10;;;;;;;15.60;9.00;;;7.20;99.90;;;;;;473499;248;28004;-72
2021/03/11 08:13:11;;;;;;;15.60;9.77;;;7.30;99.90;;;;;;473485;250;28108;-72
2021/03/11 08:15:13;;;;;;;15.80;9.57;;;7.30;99.90;;;;;;473517;248;28178;-72
2021/03/11 08:17:14;;;;;;;14.30;8.87;;;7.30;99.90;;;;;;473521;248;27898;-72
2021/03/11 08:19:15;;;;;;;20.17;10.80;;;7.30;99.90;;;;;;473481;248;27887;-74
2021/03/11 08:21:16;;;;;;;14.40;9.70;;;7.30;99.90;;;;;;473500;248;28456;-72
2021/03/11 08:23:18;;;;;;;20.63;10.30;;;7.30;99.90;;;;;;473499;248;28292;-72
2021/03/11 08:25:19;;;;;;;18.50;10.43;;;7.40;99.90;;;;;;473506;248;28349;-72
2021/03/11 08:27:20;;;;;;;14.17;9.53;;;7.40;99.90;;;;;;473505;248;27655;-75
2021/03/11 08:29:22;;;;;;;18.10;10.50;;;7.40;99.90;;;;;;473501;248;27878;-73
2021/03/11 08:31:23;;;;;;;17.20;10.77;;;7.40;99.90;;;;;;473531;248;27829;-73
2021/03/11 08:33:24;;;;;;;18.10;9.80;;;7.40;99.90;;;;;;473493;248;27516;-72
2021/03/11 08:35:25;;;;;;;19.77;10.97;;;7.40;99.90;;;;;;473539;248;27538;-73
2021/03/11 08:37:26;;;;;;;15.20;9.93;;;7.40;99.90;;;;;;473525;248;27987;-72
2021/03/11 08:39:28;;;;;;;16.13;10.20;;;7.40;99.90;;;;;;473501;248;27890;-73
2021/03/11 08:41:31;;;;;;;15.10;9.93;;;7.50;99.90;;;;;;473497;248;28341;-73
2021/03/11 08:43:30;;;;;;;19.13;11.17;;;7.50;99.90;;;;;;473539;248;28314;-72
2021/03/11 08:45:31;;;;;;;16.30;10.40;;;7.50;99.90;;;;;;473495;248;27931;-73
2021/03/11 08:47:33;;;;;;;20.20;10.50;;;7.50;99.90;;;;;;473493;248;28050;-72
2021/03/11 08:49:34;;;;;;;15.40;9.83;;;7.50;99.90;;;;;;473525;248;27752;-72
2021/03/11 08:51:35;;;;;;;14.43;9.07;;;7.60;99.90;;;;;;473502;248;27626;-73
2021/03/11 08:53:36;;;;;;;16.33;10.83;;;7.60;99.90;;;;;;473510;248;27834;-72
2021/03/11 08:55:38;;;;;;;17.23;9.87;;;7.60;99.90;;;;;;473519;248;27554;-73
2021/03/11 08:57:39;;;;;;;15.90;10.23;;;7.60;99.90;;;;;;473506;248;27969;-72
2021/03/11 08:59:40;;;;;;;14.40;9.40;;;7.70;99.90;;;;;;473538;248;27969;-72
2021/03/11 09:01:41;;;;;;;15.90;10.50;;;7.70;99.90;;;;;;473555;248;28329;-72
2021/03/11 09:03:43;;;;;;;14.90;9.17;;;7.70;99.90;;;;;;473570;248;28483;-73
2021/03/11 09:05:44;;;;;;;16.67;10.37;;;7.70;99.90;;;;;;473572;248;28232;-73
2021/03/11 09:07:45;;;;;;;13.53;9.03;;;7.70;99.90;;;;;;473521;248;27939;-72
2021/03/11 09:09:48;;;;;;;13.00;9.80;;;7.70;99.90;;;;;;473513;248;27995;-72
2021/03/11 09:11:48;;;;;;;14.63;8.80;;;7.70;99.90;;;;;;473576;248;27706;-73
2021/03/11 09:13:49;;;;;;;15.97;11.00;;;7.70;99.90;;;;;;473540;248;27953;-73
2021/03/11 09:15:50;;;;;;;11.50;8.30;;;7.70;99.90;;;;;;473526;248;27909;-72
2021/03/11 09:17:51;;;;;;;15.37;8.80;;;7.70;99.90;;;;;;473523;248;27593;-72
2021/03/11 09:19:54;;;;;;;16.50;9.77;;;7.70;99.90;;;;;;473519;248;27993;-72
2021/03/11 09:21:54;;;;;;;13.90;8.90;;;7.70;99.90;;;;;;473541;248;28406;-72
2021/03/11 09:23:55;;;;;;;12.87;9.00;;;7.70;99.90;;;;;;473528;248;28238;-72
2021/03/11 09:25:56;;;;;;;13.50;10.00;;;7.70;99.90;;;;;;473532;248;28333;-73
2021/03/11 09:27:58;;;;;;;13.60;9.70;;;7.70;99.90;;;;;;473522;248;28072;-74
2021/03/11 09:29:59;;;;;;;13.23;8.57;;;7.70;99.90;;;;;;473522;248;27835;-73
2021/03/11 09:32:00;;;;;;;11.57;8.27;;;7.70;99.90;;;;;;473509;248;27607;-73
2021/03/11 09:34:01;;;;;;;14.77;8.63;;;7.80;99.90;;;;;;473530;248;27898;-73
2021/03/11 09:36:03;;;;;;;12.93;8.90;;;7.80;99.90;;;;;;473518;248;27505;-73
2021/03/11 09:38:04;;;;;;;11.80;8.70;;;7.80;99.90;;;;;;473521;248;27721;-73
2021/03/11 09:40:05;;;;;;;12.17;8.00;;;7.80;99.90;;;;;;473534;248;27804;-74
2021/03/11 09:42:06;;;;;;;11.20;8.37;;;7.80;99.90;;;;;;473531;248;28125;-72
2021/03/11 09:44:08;;;;;;;12.77;8.43;;;7.80;99.90;;;;;;473525;248;27892;-72
2021/03/11 09:46:09;;;;;;;9.90;7.70;;;7.80;99.90;;;;;;473535;248;27983;-74
2021/03/11 09:48:10;;;;;;;10.27;8.00;;;7.90;99.90;;;;;;472644;248;28457;-74
2021/03/11 09:50:11;;;;;;;13.10;7.93;;;7.90;99.90;;;;;;472647;248;28520;-73
2021/03/11 09:52:14;;;;;;;10.43;6.90;;;7.90;99.90;;;;;;472641;248;28443;-73
2021/03/11 09:54:15;;;;;;;10.70;7.90;;;7.90;99.90;;;;;;472659;248;28074;-73
2021/03/11 09:56:15;;;;;;;13.60;7.43;;;7.90;99.90;;;;;;472648;248;27984;-72
2021/03/11 09:58:16;;;;;;;12.90;8.10;;;7.90;99.90;;;;;;472669;248;28042;-73
2021/03/11 10:00:18;;;;;;;10.00;6.70;;;8.00;99.90;;;;;;472663;248;27960;-73
2021/03/11 10:02:19;;;;;;;8.40;6.10;;;8.00;99.90;;;;;;472662;248;28078;-73
2021/03/11 10:04:23;;;;;;;7.63;5.97;;;8.10;99.90;;;;;;472653;248;28052;-73
2021/03/11 10:06:22;;;;;;;7.40;6.50;;;8.10;99.90;;;;;;472721;248;27987;-72
2021/03/11 10:08:23;;;;;;;6.73;4.90;;;8.20;99.90;;;;;;472666;248;27979;-72
2021/03/11 10:10:24;;;;;;;8.47;5.60;;;8.30;99.90;;;;;;472681;248;27977;-73
2021/03/11 10:12:25;;;;;;;8.27;5.27;;;8.20;99.90;;;;;;472678;248;27967;-72
2021/03/11 10:14:26;;;;;;;6.83;5.47;;;8.30;99.90;;;;;;472697;248;28480;-74
2021/03/11 10:16:28;;;;;;;12.00;5.70;;;8.30;99.90;;;;;;472681;248;28579;-73
2021/03/11 10:18:29;;;;;;;7.13;5.80;;;8.30;99.90;;;;;;472653;248;28438;-72
2021/03/11 10:20:30;;;;;;;6.30;5.20;;;8.40;99.90;;;;;;472647;248;28409;-74
2021/03/11 10:22:31;;;;;;;6.50;5.10;;;8.40;99.90;;;;;;472650;248;28418;-73
2021/03/11 10:24:33;;;;;;;6.90;5.37;;;8.40;99.90;;;;;;472651;248;27866;-73
2021/03/11 10:26:34;;;;;;;7.57;5.20;;;8.40;99.90;;;;;;472668;249;27963;-72
2021/03/11 10:28:35;;;;;;;6.60;4.67;;;8.40;99.90;;;;;;472669;248;27990;-72